| Record Date MM/DD/YYYY | Record Time HH:MM:SS | Record Julian Date NNN day of the year | Air Temperature Max (Degrees Fahrenheit F) | Time Max Air Temperature HH:MM:SS This is the time of max air temp for the prior hour interval listed for record [Time]. | Air Temperature Min (Degrees Fahrenheit F) | Time Min Air Temperature HH:MM:SS This is the time of min air temp for the prior hour interval listed for record [Time]. | Air Temperature Observed (Degrees Fahrenheit F) This is an instantaneous reading at the record [Time]. | Relative Humidity Max (Percent) | Time Max Relative Humidity HH:MM:SS This is the time of max relative humidity for the prior hour interval listed for record [Time]. | Relative Humidity Min (Percent) | Time Min Relative Humidity HH:MM:SS This is the time of min relative humidity for the prior hour interval listed for record [Time]. | Relative Humidity Observed (Percent) This is an instantaneous reading at the record [Time]. | Precipitation (Inches n.nn) rain fall that occurred during the prior hour interval listed for record [Time]. | Wind Speed (Miles Per Hour) Resultant Speed that occurred during the prior hour interval listed for record [Time]. | Wind Direction (Degrees) Resultant Direction that occurred during the prior hour interval listed for record [Time]. | Solar Radiation (Langley's) that occurred during the prior hour interval listed for record [Time]. | Soil Temperature Average at 2 inch depth (Degrees Fahrenheit F) that occurred during the prior hour interval listed for record [Time]. | Soil Temperature Observed at 2 inch depth (Degrees Fahrenheit F) This is an instantaneous reading at the record [Time]. | Soil Temperature Average at 4 inch depth (Degrees Fahrenheit F) that occurred during the prior hour interval listed for record [Time]. | Soil Temperature Observed at 4 inch depth (Degrees Fahrenheit F) This is an instantaneous reading at the record [Time]. |
|---|---|---|---|---|---|---|---|---|---|---|---|---|---|---|---|---|---|---|---|---|
| 05/01/2026 | 0:00:00 | 121 | 61 | 23:00:04 | 60 | 23:57:04 | 60 | 91 | 23:38:03 | 89 | 23:00:01 | 90.8 | 0 | 3.0 | 65 | 0 | 69 | 69 | 69 | 69 |
| 05/01/2026 | 1:00:00 | 121 | 60 | 0:00:00 | 59 | 0:59:01 | 59 | 91 | 0:07:01 | 90 | 0:32:02 | 90.7 | 0.01 | 3.6 | 28 | 0 | 68 | 68 | 69 | 69 |
| 05/01/2026 | 2:00:00 | 121 | 60 | 1:00:02 | 59 | 1:27:01 | 59 | 91 | 1:07:04 | 88 | 1:52:02 | 87.8 | 0 | 3.6 | 21 | 0 | 68 | 68 | 69 | 69 |
| 05/01/2026 | 3:00:00 | 121 | 59 | 2:00:02 | 59 | 2:58:01 | 59 | 89 | 2:28:04 | 88 | 2:01:02 | 89.1 | 0.01 | 2.0 | 21 | 0 | 68 | 68 | 68 | 68 |
| 05/01/2026 | 4:00:00 | 121 | 59 | 3:20:02 | 59 | 3:48:05 | 59 | 90 | 3:20:04 | 89 | 3:48:04 | 88.9 | 0 | 2.0 | 21 | 0 | 68 | 67 | 68 | 68 |
| 05/01/2026 | 5:00:00 | 121 | 59 | 4:19:05 | 59 | 4:58:00 | 59 | 90 | 4:54:03 | 88 | 4:09:04 | 89.9 | 0.01 | 1.5 | 319 | 0 | 67 | 67 | 68 | 68 |
| 05/01/2026 | 6:00:00 | 121 | 59 | 5:10:03 | 59 | 5:41:02 | 59 | 90 | 5:38:00 | 90 | 5:58:02 | 89.7 | 0 | 2.7 | 348 | 0 | 67 | 67 | 68 | 68 |
| 05/01/2026 | 7:00:00 | 121 | 59 | 6:00:02 | 58 | 6:59:02 | 58 | 90 | 6:00:01 | 88 | 6:43:02 | 87.8 | 0 | 4.0 | 348 | 2 | 67 | 67 | 68 | 68 |
| 05/01/2026 | 8:00:00 | 121 | 58 | 7:47:01 | 58 | 7:23:03 | 58 | 90 | 7:59:01 | 88 | 7:05:05 | 89.6 | 0.04 | 2.5 | 9 | 3 | 67 | 67 | 67 | 67 |
| 05/01/2026 | 9:00:00 | 121 | 58 | 8:00:00 | 57 | 8:47:00 | 57 | 91 | 8:56:02 | 89 | 8:47:00 | 89.7 | 0.03 | 4.3 | 14 | 5 | 67 | 67 | 67 | 67 |
| 05/01/2026 | 10:00:00 | 121 | 57 | 9:45:04 | 57 | 9:11:00 | 57 | 90 | 9:05:04 | 86 | 9:30:05 | 86.8 | 0.02 | 5.2 | 14 | 11 | 67 | 67 | 67 | 67 |
| 05/01/2026 | 11:00:00 | 121 | 57 | 10:23:04 | 57 | 10:38:02 | 57 | 87 | 10:06:02 | 85 | 10:26:04 | 86.8 | 0.03 | 5.2 | 14 | 13 | 67 | 67 | 67 | 67 |
| 05/01/2026 | 12:00:00 | 121 | 58 | 11:20:02 | 56 | 11:56:05 | 56 | 88 | 11:20:03 | 81 | 11:43:05 | 84.2 | 0.07 | 4.9 | 22 | 10 | 67 | 67 | 67 | 67 |
| 05/01/2026 | 13:00:00 | 121 | 56 | 12:06:01 | 55 | 12:43:02 | 55 | 88 | 12:52:00 | 83 | 12:01:00 | 87.1 | 0.06 | 3.9 | 29 | 9 | 67 | 67 | 67 | 67 |
| 05/01/2026 | 14:00:00 | 121 | 56 | 13:58:03 | 55 | 13:26:02 | 56 | 88 | 13:58:04 | 85 | 13:30:00 | 87.8 | 0.04 | 5.5 | 29 | 12 | 67 | 67 | 67 | 67 |
| 05/01/2026 | 15:00:00 | 121 | 56 | 14:07:00 | 55 | 14:59:05 | 55 | 89 | 14:07:00 | 80 | 14:24:02 | 85.8 | 0.04 | 4.7 | 29 | 5 | 66 | 66 | 67 | 67 |
| 05/01/2026 | 16:00:00 | 121 | 55 | 15:00:04 | 53 | 16:00:00 | 53 | 88 | 15:56:03 | 84 | 15:20:00 | 87.8 | 0.16 | 3.6 | 29 | 2 | 66 | 66 | 67 | 66 |
| 05/01/2026 | 17:00:00 | 121 | 54 | 16:00:02 | 52 | 16:55:00 | 52 | 88 | 16:00:04 | 84 | 16:59:05 | 84.7 | 0.08 | 7.1 | 29 | 3 | 66 | 65 | 66 | 66 |
| 05/01/2026 | 18:00:00 | 121 | 52 | 17:30:04 | 52 | 17:58:00 | 52 | 89 | 17:55:05 | 84 | 17:17:01 | 88.4 | 0.06 | 4.4 | 51 | 1 | 65 | 64 | 65 | 65 |
| 05/01/2026 | 19:00:00 | 121 | 53 | 19:00:00 | 52 | 18:00:00 | 53 | 91 | 18:59:01 | 88 | 18:00:00 | 90.9 | 0.04 | 1.9 | 41 | 0 | 64 | 64 | 65 | 65 |
| 05/01/2026 | 20:00:00 | 121 | 53 | 19:44:05 | 53 | 19:07:05 | 53 | 91 | 19:54:04 | 91 | 19:40:04 | 90.8 | 0.05 | 2.2 | 17 | 0 | 64 | 64 | 65 | 64 |
| 05/01/2026 | 21:00:00 | 121 | 54 | 20:59:00 | 53 | 20:00:01 | 54 | 92 | 20:59:03 | 91 | 20:00:01 | 91.6 | 0.09 | 2.1 | 20 | 0 | 64 | 63 | 64 | 64 |
| 05/01/2026 | 22:00:00 | 121 | 54 | 21:59:00 | 54 | 21:00:03 | 54 | 92 | 21:57:02 | 92 | 21:07:01 | 92 | 0.02 | 1.9 | 88 | 0 | 63 | 63 | 64 | 64 |
| 05/01/2026 | 23:00:00 | 121 | 54 | 22:43:03 | 54 | 22:30:00 | 54 | 92 | 22:43:01 | 92 | 22:53:00 | 91.9 | 0.04 | 0.7 | 164 | 0 | 63 | 63 | 64 | 64 |
| 05/02/2026 | 0:00:00 | 122 | 54 | 23:19:00 | 54 | 23:06:05 | 54 | 92 | 23:57:01 | 92 | 23:06:02 | 92.4 | 0.02 | 1.8 | 253 | 0 | 63 | 63 | 64 | 64 |
| 05/02/2026 | 1:00:00 | 122 | 54 | 0:57:00 | 54 | 0:21:04 | 54 | 93 | 0:57:02 | 92 | 0:08:05 | 92.8 | 0.01 | 2.4 | 261 | 0 | 63 | 63 | 64 | 64 |
| 05/02/2026 | 2:00:00 | 122 | 54 | 1:59:04 | 54 | 1:06:01 | 54 | 93 | 1:53:01 | 93 | 1:05:02 | 93 | 0 | 0.6 | 272 | 0 | 63 | 63 | 64 | 63 |
| 05/02/2026 | 3:00:00 | 122 | 55 | 2:22:02 | 54 | 2:08:04 | 55 | 93 | 2:59:00 | 93 | 2:11:04 | 93.2 | 0 | 0.6 | 45 | 0 | 63 | 63 | 63 | 63 |
| 05/02/2026 | 4:00:00 | 122 | 55 | 3:47:05 | 55 | 3:02:04 | 55 | 93 | 3:57:03 | 93 | 3:21:04 | 93.2 | 0 | 1.8 | 354 | 0 | 63 | 63 | 63 | 63 |
| 05/02/2026 | 5:00:00 | 122 | 55 | 4:02:04 | 54 | 4:46:01 | 54 | 93 | 4:19:02 | 93 | 4:59:05 | 92.7 | 0.01 | 0.4 | 354 | 0 | 63 | 63 | 63 | 63 |
| 05/02/2026 | 6:00:00 | 122 | 54 | 5:00:05 | 54 | 5:35:03 | 54 | 93 | 5:00:00 | 90 | 5:59:05 | 90.4 | 0 | 0.7 | 354 | 1 | 63 | 62 | 63 | 63 |
| 05/02/2026 | 7:00:00 | 122 | 56 | 6:59:03 | 54 | 6:05:02 | 56 | 90 | 6:00:05 | 85 | 7:00:00 | 84.5 | 0 | 2.1 | 354 | 9 | 62 | 62 | 63 | 63 |
| 05/02/2026 | 8:00:00 | 122 | 59 | 7:58:05 | 56 | 7:00:00 | 59 | 85 | 7:05:05 | 71 | 7:56:05 | 72.7 | 0 | 4.8 | 354 | 32 | 63 | 63 | 63 | 63 |
| 05/02/2026 | 9:00:00 | 122 | 62 | 8:56:02 | 59 | 8:00:01 | 62 | 75 | 8:14:04 | 62 | 8:57:04 | 63.99 | 0 | 5.5 | 354 | 46 | 63 | 64 | 63 | 64 |
| 05/02/2026 | 10:00:00 | 122 | 65 | 9:59:05 | 61 | 9:00:05 | 65 | 65 | 9:13:05 | 52 | 9:49:04 | 56.7 | 0 | 7.2 | 354 | 63 | 64 | 65 | 64 | 65 |
| 05/02/2026 | 11:00:00 | 122 | 66 | 10:44:04 | 64 | 10:04:00 | 66 | 60 | 10:21:01 | 45 | 10:52:00 | 51.74 | 0 | 8.4 | 354 | 73 | 66 | 67 | 65 | 66 |
| 05/02/2026 | 12:00:00 | 122 | 68 | 11:56:04 | 66 | 11:03:05 | 68 | 58 | 11:44:05 | 42 | 11:58:05 | 44.64 | 0 | 8.7 | 354 | 79 | 67 | 68 | 67 | 67 |
| 05/02/2026 | 13:00:00 | 122 | 70 | 12:49:04 | 67 | 12:16:04 | 68 | 55 | 12:19:04 | 38 | 12:52:05 | 43.61 | 0 | 8.3 | 354 | 79 | 69 | 70 | 68 | 69 |
| 05/02/2026 | 14:00:00 | 122 | 70 | 13:55:01 | 68 | 13:01:00 | 69 | 53 | 13:07:00 | 36 | 13:39:04 | 40.57 | 0 | 8.9 | 333 | 75 | 70 | 71 | 70 | 70 |
| 05/02/2026 | 15:00:00 | 122 | 71 | 14:17:01 | 69 | 14:33:05 | 70 | 50 | 14:41:04 | 36 | 14:33:02 | 44.69 | 0 | 8.6 | 322 | 65 | 71 | 71 | 71 | 71 |
| 05/02/2026 | 16:00:00 | 122 | 70 | 15:06:00 | 69 | 15:21:04 | 70 | 48 | 15:05:02 | 38 | 15:06:05 | 44.32 | 0 | 8.9 | 322 | 52 | 71 | 71 | 71 | 71 |
| 05/02/2026 | 17:00:00 | 122 | 70 | 16:00:03 | 69 | 16:13:00 | 70 | 51 | 16:09:04 | 41 | 16:23:05 | 45.98 | 0 | 7.2 | 343 | 28 | 71 | 71 | 71 | 71 |
| 05/02/2026 | 18:00:00 | 122 | 70 | 17:00:04 | 69 | 17:57:04 | 69 | 51 | 17:36:01 | 40 | 17:14:02 | 47.22 | 0 | 4.6 | 347 | 11 | 70 | 70 | 71 | 71 |
| 05/02/2026 | 19:00:00 | 122 | 69 | 18:00:00 | 63 | 19:00:00 | 63 | 69 | 18:58:05 | 44 | 18:06:00 | 68.56 | 0 | 1.1 | 346 | 4 | 70 | 69 | 71 | 70 |
| 05/02/2026 | 20:00:00 | 122 | 63 | 19:00:00 | 56 | 20:00:00 | 56 | 81 | 19:52:00 | 68 | 19:04:05 | 79.25 | 0 | 0.0 | 0 | 0 | 69 | 69 | 70 | 70 |
| 05/02/2026 | 21:00:00 | 122 | 56 | 20:04:02 | 53 | 20:59:02 | 54 | 86 | 21:00:00 | 79 | 20:00:00 | 85.9 | 0 | 0.0 | 0 | 0 | 68 | 68 | 69 | 69 |
| 05/02/2026 | 22:00:00 | 122 | 54 | 21:00:01 | 51 | 21:51:03 | 52 | 89 | 21:56:03 | 86 | 21:00:00 | 89.3 | 0 | 0.0 | 0 | 0 | 67 | 67 | 68 | 68 |
| 05/02/2026 | 23:00:00 | 122 | 52 | 22:28:00 | 51 | 22:59:01 | 51 | 91 | 22:54:00 | 90 | 22:43:03 | 90.9 | 0 | 0.8 | 47 | 0 | 66 | 66 | 67 | 67 |
| 05/03/2026 | 0:00:00 | 123 | 51 | 23:01:00 | 50 | 23:53:02 | 50 | 92 | 23:36:03 | 91 | 23:16:03 | 91.7 | 0 | 0.4 | 50 | 0 | 66 | 65 | 67 | 66 |
| 05/03/2026 | 1:00:00 | 123 | 50 | 0:06:02 | 49 | 0:16:01 | 50 | 92 | 0:59:04 | 91 | 0:16:02 | 92.2 | 0 | 0.0 | 0 | 0 | 65 | 65 | 66 | 66 |
| 05/03/2026 | 2:00:00 | 123 | 50 | 1:03:00 | 48 | 1:28:00 | 48 | 93 | 1:40:03 | 92 | 1:27:05 | 92.3 | 0 | 0.0 | 0 | 0 | 64 | 64 | 66 | 65 |
| 05/03/2026 | 3:00:00 | 123 | 49 | 2:06:04 | 47 | 2:55:02 | 47 | 93 | 2:43:03 | 92 | 2:00:05 | 92.6 | 0 | 0.1 | 158 | 0 | 64 | 64 | 65 | 65 |
| 05/03/2026 | 4:00:00 | 123 | 48 | 3:16:03 | 47 | 3:53:05 | 47 | 93 | 3:17:04 | 93 | 3:00:00 | 93.1 | 0 | 0.0 | 205 | 0 | 63 | 63 | 64 | 64 |
| 05/03/2026 | 5:00:00 | 123 | 47 | 4:13:04 | 46 | 4:57:03 | 46 | 93 | 4:45:03 | 93 | 4:57:01 | 92.9 | 0 | 0.6 | 97 | 0 | 63 | 63 | 64 | 64 |
| 05/03/2026 | 6:00:00 | 123 | 48 | 5:59:05 | 46 | 5:00:02 | 48 | 93 | 5:41:02 | 93 | 5:00:00 | 93.2 | 0 | 0.2 | 154 | 2 | 62 | 62 | 63 | 63 |
| 05/03/2026 | 7:00:00 | 123 | 53 | 7:00:00 | 48 | 6:00:01 | 53 | 93 | 6:04:02 | 86 | 6:59:02 | 86.1 | 0 | 1.5 | 2 | 10 | 62 | 62 | 63 | 63 |
| 05/03/2026 | 8:00:00 | 123 | 62 | 7:56:04 | 53 | 7:00:00 | 62 | 86 | 7:01:02 | 67 | 7:55:03 | 70.79 | 0 | 0.8 | 72 | 32 | 62 | 63 | 63 | 63 |
| 05/03/2026 | 9:00:00 | 123 | 65 | 8:59:02 | 62 | 8:05:02 | 65 | 73 | 8:00:05 | 57 | 8:29:01 | 62.07 | 0 | 1.5 | 281 | 49 | 63 | 64 | 63 | 64 |
| 05/03/2026 | 10:00:00 | 123 | 69 | 9:56:02 | 65 | 9:02:00 | 69 | 64 | 9:05:01 | 53 | 9:53:01 | 54.07 | 0 | 3.5 | 280 | 63 | 65 | 66 | 64 | 65 |
| 05/03/2026 | 11:00:00 | 123 | 72 | 10:58:04 | 68 | 10:01:00 | 72 | 61 | 10:07:01 | 49 | 10:44:02 | 49.16 | 0 | 4.1 | 260 | 73 | 67 | 68 | 66 | 67 |
| 05/03/2026 | 12:00:00 | 123 | 74 | 12:00:00 | 71 | 11:09:02 | 74 | 57 | 11:13:04 | 39 | 11:55:01 | 45.91 | 0 | 5.4 | 265 | 80 | 69 | 71 | 68 | 69 |
| 05/03/2026 | 13:00:00 | 123 | 74 | 12:51:04 | 73 | 12:08:01 | 74 | 53 | 12:21:05 | 41 | 12:55:02 | 47.92 | 0 | 5.2 | 292 | 79 | 71 | 72 | 70 | 70 |
| 05/03/2026 | 14:00:00 | 123 | 75 | 13:58:02 | 74 | 13:10:00 | 75 | 53 | 13:36:02 | 40 | 13:22:03 | 46.34 | 0 | 6.5 | 304 | 76 | 73 | 73 | 71 | 72 |
| 05/03/2026 | 15:00:00 | 123 | 76 | 14:45:01 | 74 | 14:34:04 | 76 | 55 | 14:38:05 | 42 | 14:01:03 | 49.97 | 0 | 4.4 | 293 | 57 | 74 | 74 | 72 | 73 |
| 05/03/2026 | 16:00:00 | 123 | 76 | 15:52:00 | 74 | 15:36:04 | 76 | 55 | 15:44:02 | 43 | 15:52:03 | 45.81 | 0 | 4.3 | 307 | 39 | 74 | 74 | 73 | 73 |
| 05/03/2026 | 17:00:00 | 123 | 77 | 16:15:02 | 75 | 16:57:04 | 75 | 53 | 16:56:01 | 42 | 16:01:02 | 46.42 | 0 | 3.9 | 306 | 25 | 74 | 74 | 74 | 74 |
| 05/03/2026 | 18:00:00 | 123 | 76 | 17:02:05 | 73 | 17:58:05 | 73 | 56 | 17:59:02 | 45 | 17:11:05 | 55.05 | 0 | 3.0 | 292 | 12 | 74 | 74 | 74 | 73 |
| 05/03/2026 | 19:00:00 | 123 | 74 | 18:03:00 | 67 | 18:59:05 | 67 | 75 | 19:00:00 | 53 | 18:03:04 | 75.27 | 0 | 2.4 | 287 | 4 | 73 | 73 | 73 | 73 |
| 05/03/2026 | 20:00:00 | 123 | 67 | 19:00:00 | 61 | 19:45:05 | 61 | 85 | 19:56:05 | 74 | 19:02:03 | 84.1 | 0 | 0.8 | 132 | 0 | 72 | 72 | 73 | 72 |
| 05/03/2026 | 21:00:00 | 123 | 61 | 20:00:02 | 58 | 20:59:05 | 58 | 88 | 20:50:04 | 83 | 20:05:04 | 87.3 | 0 | 0.0 | 0 | 0 | 71 | 71 | 72 | 71 |
| 05/03/2026 | 22:00:00 | 123 | 58 | 21:32:01 | 57 | 21:17:00 | 57 | 91 | 21:56:03 | 87 | 21:08:02 | 90.8 | 0 | 0.0 | 0 | 0 | 70 | 70 | 71 | 70 |
| 05/03/2026 | 23:00:00 | 123 | 57 | 22:00:00 | 56 | 22:47:00 | 56 | 92 | 22:51:03 | 91 | 22:00:01 | 91.7 | 0 | 0.0 | 0 | 0 | 69 | 69 | 70 | 70 |
| 05/04/2026 | 0:00:00 | 124 | 56 | 23:06:04 | 55 | 23:51:04 | 55 | 93 | 23:59:00 | 92 | 23:14:00 | 92.5 | 0 | 0.0 | 0 | 0 | 69 | 68 | 69 | 69 |
| 05/04/2026 | 1:00:00 | 124 | 55 | 0:09:03 | 53 | 0:40:02 | 54 | 93 | 0:48:05 | 92 | 0:35:05 | 92.8 | 0 | 0.0 | 0 | 0 | 68 | 68 | 69 | 68 |
| 05/04/2026 | 2:00:00 | 124 | 54 | 1:01:04 | 53 | 1:55:04 | 53 | 93 | 1:43:01 | 93 | 1:10:01 | 93.1 | 0 | 0.0 | 0 | 0 | 67 | 67 | 68 | 68 |
| 05/04/2026 | 3:00:00 | 124 | 53 | 2:00:00 | 52 | 2:20:02 | 52 | 93 | 2:43:05 | 93 | 2:07:04 | 93 | 0 | 0.5 | 193 | 0 | 67 | 66 | 67 | 67 |
| 05/04/2026 | 4:00:00 | 124 | 52 | 3:03:02 | 51 | 3:56:04 | 51 | 94 | 3:50:01 | 93 | 3:01:02 | 93.3 | 0 | 0.5 | 138 | 0 | 66 | 66 | 67 | 67 |
| 05/04/2026 | 5:00:00 | 124 | 51 | 4:00:01 | 50 | 4:42:02 | 50 | 94 | 4:59:05 | 93 | 4:05:04 | 93.6 | 0 | 0.1 | 213 | 0 | 65 | 65 | 66 | 66 |
| 05/04/2026 | 6:00:00 | 124 | 51 | 5:59:05 | 49 | 5:16:00 | 51 | 94 | 5:50:01 | 93 | 5:16:02 | 93.7 | 0 | 0.5 | 213 | 2 | 65 | 65 | 66 | 66 |
| 05/04/2026 | 7:00:00 | 124 | 58 | 7:00:00 | 51 | 6:00:00 | 58 | 94 | 6:03:01 | 84 | 6:58:03 | 84.5 | 0 | 1.1 | 209 | 10 | 65 | 65 | 65 | 65 |
| 05/04/2026 | 8:00:00 | 124 | 65 | 7:58:01 | 58 | 7:00:01 | 65 | 85 | 7:00:04 | 68 | 7:59:05 | 68.27 | 0 | 2.4 | 220 | 32 | 65 | 65 | 65 | 65 |
| 05/04/2026 | 9:00:00 | 124 | 70 | 8:59:05 | 65 | 8:00:00 | 70 | 73 | 8:02:03 | 58 | 8:58:03 | 60.87 | 0 | 3.6 | 268 | 43 | 66 | 67 | 66 | 66 |
| 05/04/2026 | 10:00:00 | 124 | 73 | 9:51:03 | 70 | 9:00:00 | 72 | 63 | 9:01:00 | 52 | 9:58:03 | 52.98 | 0 | 6.7 | 264 | 63 | 67 | 68 | 67 | 67 |
| 05/04/2026 | 11:00:00 | 124 | 76 | 10:49:04 | 72 | 10:00:00 | 75 | 59 | 10:08:02 | 50 | 10:32:03 | 51.71 | 0 | 6.7 | 253 | 74 | 69 | 70 | 68 | 68 |
| 05/04/2026 | 12:00:00 | 124 | 78 | 11:32:01 | 74 | 11:22:05 | 76 | 58 | 11:25:02 | 47 | 11:33:00 | 53.85 | 0 | 6.7 | 227 | 71 | 71 | 72 | 69 | 70 |
| 05/04/2026 | 13:00:00 | 124 | 78 | 12:30:01 | 76 | 12:01:00 | 77 | 56 | 12:02:00 | 45 | 12:59:05 | 47.4 | 0 | 7.7 | 220 | 77 | 73 | 73 | 71 | 71 |
| 05/04/2026 | 14:00:00 | 124 | 79 | 13:37:05 | 76 | 13:56:01 | 76 | 55 | 13:10:02 | 42 | 13:19:00 | 48.41 | 0 | 7.6 | 216 | 66 | 74 | 75 | 72 | 73 |
| 05/04/2026 | 15:00:00 | 124 | 79 | 14:52:05 | 76 | 14:00:00 | 79 | 53 | 14:11:05 | 45 | 14:23:04 | 47.21 | 0 | 8.0 | 216 | 65 | 75 | 75 | 73 | 73 |
| 05/04/2026 | 16:00:00 | 124 | 80 | 15:28:00 | 78 | 15:09:02 | 79 | 52 | 15:51:01 | 42 | 15:44:02 | 48.04 | 0 | 6.5 | 216 | 52 | 75 | 75 | 74 | 74 |
| 05/04/2026 | 17:00:00 | 124 | 79 | 16:00:00 | 77 | 16:38:01 | 78 | 51 | 16:28:05 | 44 | 16:17:01 | 45.26 | 0 | 7.8 | 216 | 29 | 75 | 75 | 74 | 74 |
| 05/04/2026 | 18:00:00 | 124 | 78 | 17:06:02 | 76 | 17:59:03 | 76 | 52 | 17:27:04 | 45 | 17:00:00 | 49.32 | 0 | 6.2 | 216 | 12 | 74 | 74 | 74 | 74 |
| 05/04/2026 | 19:00:00 | 124 | 76 | 18:00:02 | 70 | 19:00:00 | 70 | 57 | 18:52:03 | 49 | 18:02:05 | 55.63 | 0 | 3.4 | 216 | 4 | 74 | 73 | 73 | 73 |
| 05/04/2026 | 20:00:00 | 124 | 70 | 19:00:00 | 64 | 19:58:01 | 64 | 73 | 19:57:05 | 55 | 19:01:00 | 71.46 | 0 | 2.0 | 216 | 0 | 73 | 72 | 73 | 72 |
| 05/04/2026 | 21:00:00 | 124 | 65 | 20:15:00 | 62 | 20:59:04 | 62 | 78 | 20:58:03 | 65 | 20:13:05 | 77.46 | 0 | 3.3 | 216 | 0 | 72 | 71 | 72 | 71 |
| 05/04/2026 | 22:00:00 | 124 | 62 | 21:15:00 | 60 | 21:59:05 | 60 | 78 | 21:59:05 | 75 | 21:51:02 | 78.46 | 0 | 2.8 | 216 | 0 | 71 | 70 | 71 | 71 |
| 05/04/2026 | 23:00:00 | 124 | 63 | 22:39:00 | 60 | 22:02:01 | 62 | 78 | 22:00:00 | 69 | 22:38:04 | 73.16 | 0 | 4.3 | 216 | 0 | 70 | 70 | 70 | 70 |
| 05/05/2026 | 0:00:00 | 125 | 62 | 23:41:00 | 61 | 23:57:02 | 61 | 74 | 23:33:02 | 72 | 23:40:05 | 73.41 | 0 | 4.0 | 216 | 0 | 69 | 69 | 70 | 70 |
| 05/05/2026 | 1:00:00 | 125 | 62 | 0:46:00 | 61 | 0:05:05 | 62 | 74 | 0:05:03 | 71 | 0:45:03 | 72.12 | 0 | 5.0 | 216 | 0 | 69 | 68 | 69 | 69 |
| 05/05/2026 | 2:00:00 | 125 | 62 | 1:13:04 | 60 | 1:58:03 | 60 | 77 | 1:57:02 | 71 | 1:13:01 | 76.2 | 0 | 5.4 | 216 | 0 | 68 | 68 | 69 | 69 |
| 05/05/2026 | 3:00:00 | 125 | 60 | 2:03:00 | 59 | 2:54:01 | 59 | 80 | 2:57:01 | 76 | 2:02:04 | 79.32 | 0 | 3.0 | 216 | 0 | 68 | 68 | 68 | 68 |
| 05/05/2026 | 4:00:00 | 125 | 59 | 3:07:03 | 57 | 3:38:03 | 57 | 85 | 3:50:00 | 79 | 3:09:00 | 84.5 | 0 | 1.5 | 216 | 0 | 67 | 67 | 68 | 68 |
| 05/05/2026 | 5:00:00 | 125 | 57 | 4:05:02 | 57 | 4:21:02 | 57 | 86 | 4:27:05 | 84 | 4:01:00 | 85.1 | 0 | 1.8 | 208 | 0 | 67 | 67 | 68 | 67 |
| 05/05/2026 | 6:00:00 | 125 | 58 | 5:59:03 | 57 | 5:00:02 | 58 | 85 | 5:02:00 | 84 | 5:20:05 | 84.2 | 0 | 3.2 | 208 | 1 | 67 | 66 | 67 | 67 |
| 05/05/2026 | 7:00:00 | 125 | 63 | 7:00:00 | 58 | 6:00:00 | 63 | 84 | 6:08:04 | 78 | 6:56:01 | 78.58 | 0 | 3.6 | 208 | 7 | 66 | 66 | 67 | 67 |
| 05/05/2026 | 8:00:00 | 125 | 69 | 7:54:04 | 63 | 7:00:00 | 68 | 79 | 7:00:02 | 70 | 7:59:03 | 70.97 | 0 | 6.6 | 208 | 22 | 67 | 67 | 67 | 67 |
| 05/05/2026 | 9:00:00 | 125 | 71 | 8:57:04 | 68 | 8:00:03 | 71 | 73 | 8:16:05 | 67 | 8:30:00 | 69.81 | 0 | 7.2 | 208 | 25 | 67 | 68 | 67 | 67 |
| 05/05/2026 | 10:00:00 | 125 | 74 | 9:57:02 | 71 | 9:01:00 | 74 | 71 | 9:03:04 | 66 | 9:58:01 | 66.66 | 0 | 9.5 | 208 | 30 | 68 | 68 | 68 | 68 |
| 05/05/2026 | 11:00:00 | 125 | 75 | 10:58:04 | 74 | 10:01:00 | 75 | 70 | 10:29:00 | 66 | 10:19:04 | 67.54 | 0 | 7.0 | 208 | 25 | 69 | 69 | 68 | 69 |
| 05/05/2026 | 12:00:00 | 125 | 81 | 11:53:05 | 75 | 11:00:00 | 80 | 69 | 11:04:05 | 60 | 11:55:01 | 61.75 | 0 | 8.3 | 208 | 57 | 70 | 70 | 69 | 69 |
| 05/05/2026 | 13:00:00 | 125 | 80 | 12:01:00 | 77 | 12:55:04 | 78 | 66 | 13:00:00 | 61 | 12:01:02 | 66.13 | 0 | 7.0 | 208 | 21 | 71 | 71 | 70 | 70 |
| 05/05/2026 | 14:00:00 | 125 | 79 | 13:26:01 | 77 | 13:02:00 | 78 | 67 | 13:00:03 | 62 | 13:30:01 | 64.18 | 0 | 5.9 | 208 | 16 | 71 | 71 | 71 | 71 |
| 05/05/2026 | 15:00:00 | 125 | 79 | 14:38:04 | 78 | 14:01:04 | 78 | 67 | 14:35:03 | 63 | 14:08:00 | 66.9 | 0 | 5.2 | 208 | 15 | 71 | 72 | 71 | 71 |
| 05/05/2026 | 16:00:00 | 125 | 79 | 15:52:04 | 78 | 15:11:04 | 78 | 69 | 15:38:05 | 65 | 15:11:04 | 68.27 | 0 | 6.2 | 208 | 14 | 72 | 72 | 71 | 71 |
| 05/05/2026 | 17:00:00 | 125 | 79 | 16:30:04 | 78 | 16:59:02 | 78 | 71 | 16:47:04 | 66 | 16:01:03 | 70.33 | 0 | 6.6 | 208 | 12 | 72 | 72 | 71 | 71 |
| 05/05/2026 | 18:00:00 | 125 | 78 | 17:09:03 | 76 | 17:58:04 | 77 | 73 | 17:57:05 | 68 | 17:12:03 | 72.08 | 0 | 6.3 | 208 | 7 | 72 | 72 | 71 | 71 |
| 05/05/2026 | 19:00:00 | 125 | 77 | 18:01:00 | 75 | 18:48:00 | 75 | 75 | 18:48:01 | 72 | 18:00:03 | 74.4 | 0 | 5.3 | 208 | 1 | 72 | 72 | 71 | 71 |
| 05/05/2026 | 20:00:00 | 125 | 75 | 19:03:02 | 74 | 19:37:03 | 74 | 77 | 19:57:04 | 74 | 19:03:00 | 77.1 | 0 | 4.9 | 208 | 0 | 71 | 71 | 71 | 71 |
| 05/05/2026 | 21:00:00 | 125 | 75 | 20:30:04 | 74 | 20:22:03 | 75 | 77 | 20:12:01 | 76 | 20:30:02 | 76.68 | 0 | 6.4 | 208 | 0 | 71 | 71 | 71 | 71 |
| 05/05/2026 | 22:00:00 | 125 | 75 | 21:00:01 | 73 | 21:49:05 | 73 | 81 | 21:50:01 | 77 | 21:00:02 | 80.4 | 0 | 6.5 | 208 | 0 | 71 | 71 | 71 | 71 |
| 05/05/2026 | 23:00:00 | 125 | 73 | 22:00:02 | 73 | 22:14:02 | 73 | 83 | 22:57:03 | 80 | 22:00:03 | 82.9 | 0 | 6.3 | 208 | 0 | 71 | 71 | 71 | 71 |
| 05/06/2026 | 0:00:00 | 126 | 73 | 23:00:00 | 72 | 23:47:03 | 72 | 85 | 23:49:02 | 83 | 23:00:01 | 85 | 0 | 6.5 | 208 | 0 | 70 | 70 | 71 | 70 |
| 05/06/2026 | 1:00:00 | 126 | 72 | 0:00:00 | 71 | 1:00:00 | 71 | 86 | 0:53:05 | 85 | 0:00:03 | 86.1 | 0 | 6.6 | 208 | 0 | 70 | 70 | 70 | 70 |
| 05/06/2026 | 2:00:00 | 126 | 71 | 1:51:03 | 71 | 1:18:01 | 71 | 87 | 1:14:04 | 86 | 1:52:00 | 85.9 | 0 | 5.5 | 208 | 0 | 70 | 70 | 70 | 70 |
| 05/06/2026 | 3:00:00 | 126 | 72 | 2:52:02 | 71 | 2:02:01 | 72 | 86 | 2:00:03 | 84 | 2:52:00 | 83.6 | 0 | 7.0 | 208 | 0 | 70 | 70 | 70 | 70 |
| 05/06/2026 | 4:00:00 | 126 | 72 | 3:22:04 | 71 | 3:47:04 | 71 | 84 | 3:48:02 | 83 | 3:35:03 | 83.6 | 0 | 5.1 | 208 | 0 | 70 | 70 | 70 | 70 |
| 05/06/2026 | 5:00:00 | 126 | 71 | 4:00:03 | 70 | 4:25:03 | 71 | 86 | 4:28:00 | 84 | 4:01:03 | 84.5 | 0 | 4.2 | 208 | 0 | 70 | 70 | 70 | 70 |
| 05/06/2026 | 6:00:00 | 126 | 71 | 5:10:04 | 71 | 5:00:01 | 71 | 87 | 5:59:05 | 84 | 5:01:02 | 86.5 | 0 | 1.7 | 208 | 0 | 70 | 70 | 70 | 70 |
| 05/06/2026 | 7:00:00 | 126 | 71 | 6:00:01 | 71 | 6:55:03 | 71 | 90 | 7:00:00 | 87 | 6:00:01 | 89.6 | 0 | 0.5 | 208 | 1 | 70 | 70 | 70 | 70 |
| 05/06/2026 | 8:00:00 | 126 | 71 | 7:42:05 | 71 | 7:00:05 | 71 | 90 | 7:05:03 | 89 | 7:33:00 | 89.8 | 0 | 4.0 | 208 | 3 | 70 | 70 | 70 | 70 |
| 05/06/2026 | 9:00:00 | 126 | 72 | 8:55:05 | 71 | 8:02:05 | 72 | 91 | 8:41:04 | 90 | 8:02:04 | 90.5 | 0 | 6.2 | 208 | 8 | 70 | 70 | 70 | 70 |
| 05/06/2026 | 10:00:00 | 126 | 75 | 9:49:00 | 72 | 9:00:00 | 75 | 91 | 9:05:01 | 86 | 9:51:01 | 86.2 | 0 | 5.8 | 208 | 23 | 70 | 71 | 70 | 70 |
| 05/06/2026 | 11:00:00 | 126 | 75 | 10:51:04 | 75 | 10:20:02 | 75 | 88 | 10:19:04 | 86 | 10:52:03 | 86.6 | 0 | 4.3 | 223 | 11 | 71 | 71 | 71 | 71 |
| 05/06/2026 | 12:00:00 | 126 | 79 | 11:57:05 | 75 | 11:00:02 | 79 | 88 | 11:20:05 | 80 | 11:58:03 | 82.5 | 0 | 3.3 | 264 | 19 | 72 | 72 | 71 | 71 |
| 05/06/2026 | 13:00:00 | 126 | 82 | 12:49:03 | 78 | 12:00:01 | 82 | 84 | 12:00:03 | 75 | 12:31:01 | 77.48 | 0 | 4.8 | 235 | 37 | 72 | 73 | 72 | 72 |
| 05/06/2026 | 14:00:00 | 126 | 83 | 13:09:04 | 80 | 13:49:01 | 81 | 79 | 13:02:01 | 74 | 13:33:05 | 76.87 | 0 | 5.5 | 230 | 23 | 74 | 74 | 73 | 73 |
| 05/06/2026 | 15:00:00 | 126 | 81 | 14:00:02 | 78 | 14:25:03 | 79 | 85 | 14:30:04 | 76 | 14:02:00 | 83.3 | 0.08 | 4.6 | 223 | 9 | 74 | 74 | 73 | 73 |
| 05/06/2026 | 16:00:00 | 126 | 79 | 15:44:00 | 78 | 15:15:04 | 78 | 85 | 15:59:00 | 82 | 15:45:00 | 84.4 | 0 | 5.1 | 217 | 9 | 74 | 74 | 73 | 73 |
| 05/06/2026 | 17:00:00 | 126 | 78 | 16:00:02 | 70 | 17:00:00 | 70 | 89 | 16:57:02 | 85 | 16:01:03 | 88.2 | 0 | 4.1 | 21 | 5 | 74 | 74 | 74 | 74 |
| 05/06/2026 | 18:00:00 | 126 | 70 | 17:00:00 | 65 | 17:57:03 | 65 | 90 | 17:18:04 | 88 | 17:00:04 | 89.4 | 0 | 6.6 | 297 | 2 | 74 | 74 | 74 | 73 |
| 05/06/2026 | 19:00:00 | 126 | 65 | 18:00:00 | 63 | 18:57:05 | 63 | 91 | 18:59:05 | 89 | 18:00:03 | 91 | 0.01 | 5.9 | 305 | 0 | 73 | 73 | 73 | 73 |
| 05/06/2026 | 20:00:00 | 126 | 63 | 19:56:00 | 62 | 19:07:05 | 63 | 92 | 19:56:01 | 91 | 19:08:01 | 91.6 | 0.01 | 3.4 | 314 | 0 | 72 | 72 | 73 | 72 |
| 05/06/2026 | 21:00:00 | 126 | 63 | 20:44:05 | 63 | 20:59:00 | 63 | 92 | 20:00:02 | 91 | 20:42:03 | 91.2 | 0 | 3.7 | 354 | 0 | 72 | 71 | 72 | 72 |
| 05/06/2026 | 22:00:00 | 126 | 63 | 21:01:05 | 62 | 21:58:02 | 62 | 92 | 21:11:04 | 91 | 21:53:01 | 90.9 | 0 | 4.7 | 354 | 0 | 71 | 71 | 72 | 71 |
| 05/06/2026 | 23:00:00 | 126 | 62 | 22:00:02 | 60 | 22:37:04 | 60 | 91 | 22:29:04 | 90 | 22:46:04 | 90.8 | 0 | 6.0 | 354 | 0 | 71 | 70 | 71 | 71 |
| 05/07/2026 | 0:00:00 | 127 | 60 | 23:00:02 | 59 | 23:44:01 | 59 | 91 | 23:24:02 | 91 | 23:56:05 | 90.6 | 0 | 5.9 | 354 | 0 | 70 | 70 | 71 | 70 |
| 05/07/2026 | 1:00:00 | 127 | 59 | 0:11:01 | 59 | 0:57:05 | 59 | 91 | 0:17:05 | 90 | 0:50:01 | 90.6 | 0 | 4.3 | 354 | 0 | 70 | 69 | 70 | 70 |
| 05/07/2026 | 2:00:00 | 127 | 59 | 1:01:02 | 58 | 1:56:00 | 58 | 91 | 1:57:01 | 90 | 1:13:01 | 90.9 | 0 | 3.8 | 354 | 0 | 69 | 69 | 70 | 70 |
| 05/07/2026 | 3:00:00 | 127 | 58 | 2:02:01 | 58 | 2:58:01 | 58 | 91 | 2:28:01 | 91 | 2:01:01 | 91.3 | 0 | 4.7 | 354 | 0 | 69 | 69 | 69 | 69 |
| 05/07/2026 | 4:00:00 | 127 | 58 | 3:00:02 | 57 | 3:55:00 | 57 | 91 | 3:00:05 | 90 | 3:58:05 | 89.8 | 0 | 5.8 | 354 | 0 | 69 | 68 | 69 | 69 |
| 05/07/2026 | 5:00:00 | 127 | 58 | 4:19:00 | 57 | 4:34:01 | 58 | 90 | 4:38:04 | 90 | 4:06:00 | 90.1 | 0 | 4.4 | 354 | 0 | 68 | 68 | 69 | 69 |
| 05/07/2026 | 6:00:00 | 127 | 58 | 5:01:04 | 57 | 5:40:00 | 57 | 90 | 5:50:01 | 89 | 5:12:05 | 90.1 | 0 | 4.3 | 354 | 0 | 68 | 68 | 68 | 68 |
| 05/07/2026 | 7:00:00 | 127 | 57 | 6:49:02 | 57 | 6:41:03 | 57 | 91 | 6:24:03 | 90 | 6:41:01 | 89.9 | 0 | 4.1 | 354 | 2 | 68 | 67 | 68 | 68 |
| 05/07/2026 | 8:00:00 | 127 | 59 | 7:55:03 | 57 | 7:00:00 | 58 | 90 | 7:18:00 | 88 | 7:57:01 | 88.4 | 0 | 2.0 | 14 | 8 | 67 | 67 | 68 | 68 |
| 05/07/2026 | 9:00:00 | 127 | 59 | 8:15:00 | 58 | 8:35:00 | 59 | 89 | 8:05:04 | 88 | 8:21:02 | 88.4 | 0 | 5.2 | 13 | 8 | 68 | 68 | 68 | 68 |
| 05/07/2026 | 10:00:00 | 127 | 60 | 9:58:03 | 58 | 9:09:05 | 60 | 89 | 9:00:04 | 86 | 9:54:03 | 85.9 | 0 | 5.7 | 13 | 15 | 68 | 68 | 68 | 68 |
| 05/07/2026 | 11:00:00 | 127 | 60 | 10:03:05 | 59 | 10:19:03 | 59 | 88 | 10:28:01 | 86 | 10:01:01 | 87.5 | 0 | 5.3 | 13 | 14 | 68 | 68 | 68 | 68 |
| 05/07/2026 | 12:00:00 | 127 | 61 | 11:47:04 | 59 | 11:02:02 | 60 | 88 | 11:03:00 | 84 | 11:51:01 | 85.2 | 0 | 4.8 | 11 | 16 | 68 | 68 | 68 | 68 |
| 05/07/2026 | 13:00:00 | 127 | 63 | 12:57:03 | 60 | 12:01:03 | 63 | 86 | 12:02:00 | 78 | 12:59:00 | 80.8 | 0 | 4.4 | 12 | 26 | 68 | 69 | 68 | 69 |
| 05/07/2026 | 14:00:00 | 127 | 68 | 13:55:02 | 63 | 13:01:00 | 67 | 81 | 13:02:00 | 71 | 13:56:00 | 71.71 | 0 | 3.6 | 18 | 43 | 69 | 70 | 69 | 69 |
| 05/07/2026 | 15:00:00 | 127 | 70 | 14:44:03 | 67 | 14:00:04 | 69 | 75 | 14:07:05 | 68 | 14:20:01 | 73.14 | 0 | 2.6 | 339 | 38 | 70 | 71 | 70 | 70 |
| 05/07/2026 | 16:00:00 | 127 | 71 | 15:57:05 | 69 | 15:01:01 | 71 | 74 | 15:01:04 | 65 | 15:58:01 | 65.32 | 0 | 2.5 | 32 | 25 | 71 | 71 | 71 | 71 |
| 05/07/2026 | 17:00:00 | 127 | 71 | 16:02:04 | 69 | 16:59:04 | 69 | 70 | 16:23:02 | 64 | 16:35:02 | 66.52 | 0 | 2.1 | 10 | 14 | 72 | 72 | 71 | 71 |
| 05/07/2026 | 18:00:00 | 127 | 69 | 17:00:03 | 67 | 17:58:02 | 67 | 78 | 17:38:01 | 65 | 17:03:00 | 71.52 | 0 | 2.1 | 35 | 4 | 72 | 71 | 71 | 71 |
| 05/07/2026 | 19:00:00 | 127 | 67 | 18:02:01 | 66 | 18:59:02 | 66 | 79 | 18:56:03 | 70 | 18:01:00 | 77.64 | 0 | 1.0 | 257 | 1 | 71 | 71 | 71 | 71 |
| 05/07/2026 | 20:00:00 | 127 | 66 | 19:00:02 | 61 | 19:55:02 | 61 | 87 | 19:57:00 | 78 | 19:00:00 | 86.9 | 0 | 0.0 | 0 | 0 | 71 | 70 | 71 | 71 |
| 05/07/2026 | 21:00:00 | 127 | 62 | 20:00:03 | 60 | 20:43:05 | 60 | 91 | 20:53:05 | 87 | 20:00:00 | 90.4 | 0 | 0.1 | 342 | 0 | 70 | 70 | 70 | 70 |
| 05/07/2026 | 22:00:00 | 127 | 61 | 21:30:00 | 60 | 21:51:05 | 61 | 92 | 21:29:03 | 90 | 21:00:00 | 91.6 | 0 | 0.2 | 330 | 0 | 69 | 69 | 70 | 70 |
| 05/07/2026 | 23:00:00 | 127 | 61 | 22:48:01 | 60 | 22:13:01 | 61 | 92 | 22:34:02 | 91 | 22:09:01 | 92 | 0 | 0.0 | 0 | 0 | 69 | 69 | 69 | 69 |
| Average | 64.73 | 62.73 | 63.71 | 80.76 | 75.24 | 78.02 | 0.01 | 3.81 | 14.95 | 68.63 | 68.64 | 68.73 | 68.7 | |||||||
| Total | 1.04 |